Time;durP1;ratioP1;P1;durP2;ratioP2;P2;SDS_P1;SDS_P2;PMS_P1;PMS_P2;Temp;Humidity;BMP_temperature;BMP_pressure;BME280_temperature;BME280_humidity;BME280_pressure;Samples;Min_cycle;Max_cycle;Signal;HPM_P1;HPM_P2
2021/04/03 00:00:32;;;;;;;26.98;6.57;;;5.40;99.90;;;;;;5086924;28;20016;-48
2021/04/03 00:02:59;;;;;;;26.00;6.20;;;5.40;99.90;;;;;;5086937;28;20028;-45
2021/04/03 00:05:27;;;;;;;29.35;6.82;;;5.40;99.90;;;;;;5086248;28;20557;-46
2021/04/03 00:07:53;;;;;;;31.73;6.40;;;5.30;99.90;;;;;;5084863;28;20034;-46
2021/04/03 00:10:48;;;;;;;26.02;6.60;;;5.20;99.90;;;;;;5068329;28;20024;-43
2021/04/03 00:13:17;;;;;;;30.50;7.28;;;5.10;99.90;;;;;;5067964;28;20028;-45
2021/04/03 00:15:43;;;;;;;30.58;6.13;;;5.10;99.90;;;;;;5085856;28;20032;-45
2021/04/03 00:18:11;;;;;;;29.48;6.28;;;5.00;99.90;;;;;;5068597;28;20020;-44
2021/04/03 00:20:37;;;;;;;27.92;7.00;;;5.00;99.90;;;;;;5086367;28;20177;-45
2021/04/03 00:23:03;;;;;;;35.85;7.53;;;5.00;99.90;;;;;;5086504;28;20549;-43
2021/04/03 00:25:30;;;;;;;28.73;6.13;;;5.00;99.90;;;;;;5067451;28;20035;-45
2021/04/03 00:27:55;;;;;;;34.53;6.13;;;4.90;99.90;;;;;;5068095;28;20508;-45
2021/04/03 00:30:21;;;;;;;39.38;7.35;;;4.90;99.90;;;;;;5086348;28;20028;-45
2021/04/03 00:32:55;;;;;;;31.30;6.40;;;4.80;99.90;;;;;;5085902;28;20096;-44
2021/04/03 00:35:26;;;;;;;37.60;7.22;;;4.70;99.90;;;;;;5070799;28;20032;-45
2021/04/03 00:37:53;;;;;;;29.20;7.10;;;4.70;99.90;;;;;;5047900;28;20494;-45
2021/04/03 00:40:22;;;;;;;31.20;6.78;;;4.70;99.90;;;;;;5066226;28;20525;-46
2021/04/03 00:42:49;;;;;;;29.30;6.00;;;4.70;99.90;;;;;;5066345;28;20027;-44
2021/04/03 00:45:16;;;;;;;32.65;6.05;;;4.70;99.90;;;;;;5065967;28;20032;-45
2021/04/03 00:47:42;;;;;;;24.42;6.90;;;4.60;99.90;;;;;;5065930;28;20024;-48
2021/04/03 00:50:09;;;;;;;30.30;6.63;;;4.50;99.90;;;;;;5066067;28;20028;-45
2021/04/03 00:52:35;;;;;;;23.23;6.97;;;4.50;99.90;;;;;;5067074;28;20024;-45
2021/04/03 00:55:03;;;;;;;29.52;5.82;;;4.50;99.90;;;;;;5085743;28;20032;-45
2021/04/03 00:57:29;;;;;;;26.98;7.10;;;4.50;99.90;;;;;;5085960;28;20133;-45
2021/04/03 00:59:54;;;;;;;26.48;6.07;;;4.50;99.90;;;;;;5086330;28;20126;-46
2021/04/03 01:02:20;;;;;;;25.00;5.47;;;4.50;99.90;;;;;;5086314;28;20278;-45
2021/04/03 01:04:45;;;;;;;30.52;6.55;;;4.40;99.90;;;;;;5085942;28;20028;-45
2021/04/03 01:07:11;;;;;;;25.27;5.85;;;4.30;99.90;;;;;;5088935;28;20023;-47
2021/04/03 01:09:38;;;;;;;27.27;6.47;;;4.30;99.90;;;;;;5090165;28;20036;-47
2021/04/03 01:12:19;;;;;;;23.42;5.65;;;4.20;99.90;;;;;;5089829;28;20150;-45
2021/04/03 01:15:09;;;;;;;37.55;5.95;;;4.20;99.90;;;;;;5089861;28;20035;-47
2021/04/03 01:17:52;;;;;;;24.67;5.32;;;4.20;99.90;;;;;;5089904;28;20220;-46
2021/04/03 01:20:34;;;;;;;29.80;5.13;;;4.10;99.90;;;;;;5088796;28;20047;-46
2021/04/03 01:23:18;;;;;;;21.95;5.38;;;4.10;99.90;;;;;;5089599;28;20540;-46
2021/04/03 01:26:21;;;;;;;18.70;4.75;;;4.10;99.90;;;;;;5089117;28;20541;-44
2021/04/03 01:29:10;;;;;;;28.40;5.15;;;4.00;99.90;;;;;;5089834;28;20016;-45
2021/04/03 01:31:39;;;;;;;23.80;5.32;;;4.00;99.90;;;;;;5089623;28;20040;-45
2021/04/03 01:34:16;;;;;;;29.52;4.93;;;4.00;99.90;;;;;;5089386;28;20496;-45
2021/04/03 01:36:42;;;;;;;32.65;7.03;;;3.90;99.90;;;;;;5084073;28;20032;-45
2021/04/03 01:39:15;;;;;;;28.85;6.10;;;3.90;99.90;;;;;;5089790;28;20024;-47
2021/04/03 01:41:45;;;;;;;28.55;5.38;;;3.90;99.90;;;;;;5089351;28;20108;-46
2021/04/03 01:44:15;;;;;;;25.92;5.32;;;3.90;99.90;;;;;;5071250;28;20031;-47
2021/04/03 01:46:42;;;;;;;32.17;5.03;;;3.90;99.90;;;;;;5088985;28;20048;-46
2021/04/03 01:49:11;;;;;;;33.70;5.22;;;3.80;99.90;;;;;;5089463;28;20028;-45
2021/04/03 01:51:40;;;;;;;26.65;6.03;;;3.80;99.90;;;;;;5088970;28;20420;-44
2021/04/03 01:54:09;;;;;;;23.02;4.72;;;3.80;99.90;;;;;;5089183;28;20020;-44
2021/04/03 01:56:36;;;;;;;23.63;4.97;;;3.80;99.90;;;;;;5088832;28;20035;-45
2021/04/03 01:59:02;;;;;;;24.20;4.97;;;3.70;99.90;;;;;;5089414;28;20114;-44
2021/04/03 02:01:28;;;;;;;20.23;5.75;;;3.70;99.90;;;;;;5089251;28;20118;-44
2021/04/03 02:03:56;;;;;;;30.77;5.15;;;3.60;99.90;;;;;;5089578;28;20038;-44
2021/04/03 02:06:22;;;;;;;24.83;5.20;;;3.60;99.90;;;;;;5088883;28;20032;-45
2021/04/03 02:08:48;;;;;;;32.20;5.43;;;3.60;99.90;;;;;;5089057;28;20031;-44
2021/04/03 02:11:14;;;;;;;31.48;4.38;;;3.60;99.90;;;;;;5089359;28;20101;-44
2021/04/03 02:13:41;;;;;;;34.88;5.72;;;3.60;99.90;;;;;;5088387;28;20020;-47
2021/04/03 02:16:06;;;;;;;38.83;4.80;;;3.50;99.90;;;;;;5088140;28;20028;-45
2021/04/03 02:18:34;;;;;;;17.80;4.43;;;3.40;99.90;;;;;;5088078;28;20081;-44
2021/04/03 02:21:04;;;;;;;32.70;5.28;;;3.50;99.90;;;;;;5088863;28;20124;-44
2021/04/03 02:23:34;;;;;;;29.30;5.82;;;3.40;99.90;;;;;;5088510;28;20025;-44
2021/04/03 02:25:59;;;;;;;25.98;4.53;;;3.40;99.90;;;;;;5088289;28;20021;-46
2021/04/03 02:28:25;;;;;;;27.70;4.60;;;3.40;99.90;;;;;;5089014;28;20100;-45
2021/04/03 02:30:52;;;;;;;31.17;5.45;;;3.30;99.90;;;;;;5088500;28;20024;-46
2021/04/03 02:33:19;;;;;;;27.83;5.03;;;3.30;99.90;;;;;;5087934;28;20035;-45
2021/04/03 02:35:44;;;;;;;25.48;4.82;;;3.30;99.90;;;;;;5087256;28;20035;-45
2021/04/03 02:38:11;;;;;;;27.40;4.93;;;3.30;99.90;;;;;;5075545;28;20032;-45
2021/04/03 02:40:37;;;;;;;27.45;5.43;;;3.30;99.90;;;;;;5088130;28;20051;-45
2021/04/03 02:43:21;;;;;;;26.42;4.63;;;3.20;99.90;;;;;;5088375;28;20526;-46
2021/04/03 02:45:58;;;;;;;25.50;5.70;;;3.20;99.90;;;;;;5087203;28;20024;-46
2021/04/03 02:48:28;;;;;;;19.85;4.72;;;3.20;99.90;;;;;;5088048;28;20028;-45
2021/04/03 02:50:56;;;;;;;32.85;5.75;;;3.20;99.90;;;;;;5082428;28;20023;-46
2021/04/03 02:53:28;;;;;;;25.15;5.07;;;3.20;99.90;;;;;;5082567;28;20056;-45
2021/04/03 02:55:55;;;;;;;35.13;5.05;;;3.10;99.90;;;;;;5081151;28;20024;-45
2021/04/03 02:58:23;;;;;;;27.70;5.78;;;3.10;99.90;;;;;;5064298;28;20478;-45
2021/04/03 03:00:55;;;;;;;31.30;5.15;;;3.10;99.90;;;;;;5095375;28;20509;-45
2021/04/03 03:03:22;;;;;;;26.05;5.85;;;3.10;99.90;;;;;;5092530;28;20138;-48
2021/04/03 03:05:53;;;;;;;19.23;4.38;;;3.00;99.90;;;;;;5084219;28;20023;-46
2021/04/03 03:08:20;;;;;;;26.83;5.18;;;3.00;99.90;;;;;;5091134;28;20024;-45
2021/04/03 03:10:48;;;;;;;27.50;5.32;;;3.00;99.90;;;;;;5087672;28;20095;-44
2021/04/03 03:13:16;;;;;;;29.90;5.20;;;2.90;99.90;;;;;;5095143;28;20250;-45
2021/04/03 03:15:42;;;;;;;30.73;5.13;;;2.90;99.90;;;;;;5097492;28;20028;-45
2021/04/03 03:18:08;;;;;;;30.38;5.72;;;2.90;99.90;;;;;;5095025;28;20036;-44
2021/04/03 03:20:34;;;;;;;28.33;5.07;;;2.90;99.90;;;;;;5086718;28;20401;-44
2021/04/03 03:23:00;;;;;;;24.30;5.18;;;2.80;99.90;;;;;;5086711;28;20362;-44
2021/04/03 03:25:26;;;;;;;25.42;4.95;;;2.80;99.90;;;;;;5087186;28;20173;-44
2021/04/03 03:27:54;;;;;;;20.88;4.70;;;2.80;99.90;;;;;;5087615;28;20089;-43
2021/04/03 03:30:21;;;;;;;29.83;5.60;;;2.80;99.90;;;;;;5087620;28;20027;-44
2021/04/03 03:32:47;;;;;;;27.23;4.35;;;2.80;99.90;;;;;;5087357;28;20036;-45
2021/04/03 03:35:14;;;;;;;26.63;5.43;;;2.80;99.90;;;;;;5086899;28;20107;-45
2021/04/03 03:37:42;;;;;;;24.55;5.80;;;2.80;99.90;;;;;;5080030;28;20035;-44
2021/04/03 03:40:09;;;;;;;33.10;5.85;;;2.80;99.90;;;;;;5071656;28;20516;-44
2021/04/03 03:42:35;;;;;;;35.92;4.78;;;2.70;99.90;;;;;;5071007;28;20421;-44
2021/04/03 03:45:04;;;;;;;33.15;5.07;;;2.70;99.90;;;;;;5094803;28;20109;-45
2021/04/03 03:47:30;;;;;;;23.90;6.10;;;2.70;99.90;;;;;;5104578;28;20153;-44
2021/04/03 03:49:55;;;;;;;26.23;4.38;;;2.60;99.90;;;;;;5107606;28;20117;-44
2021/04/03 03:52:21;;;;;;;32.15;5.45;;;2.60;99.90;;;;;;5107229;28;20027;-44
2021/04/03 03:54:46;;;;;;;29.48;4.47;;;2.60;99.90;;;;;;5089344;28;20039;-44
2021/04/03 03:57:13;;;;;;;24.17;4.38;;;2.50;99.90;;;;;;5084866;28;20101;-45
2021/04/03 03:59:38;;;;;;;31.08;5.55;;;2.50;99.90;;;;;;5066834;28;20056;-45
2021/04/03 04:02:04;;;;;;;31.17;6.90;;;2.60;99.90;;;;;;5085602;28;20105;-44
2021/04/03 04:04:29;;;;;;;25.00;4.18;;;2.50;99.90;;;;;;5086720;28;20035;-44
2021/04/03 04:06:55;;;;;;;30.27;4.97;;;2.50;99.90;;;;;;5085806;28;20020;-44
2021/04/03 04:09:20;;;;;;;23.85;4.88;;;2.50;99.90;;;;;;5086779;28;20115;-45
2021/04/03 04:11:46;;;;;;;35.42;6.20;;;2.50;99.90;;;;;;5086837;28;20039;-45
2021/04/03 04:14:11;;;;;;;27.13;4.97;;;2.40;99.90;;;;;;5086727;28;20124;-45
2021/04/03 04:16:37;;;;;;;33.72;5.65;;;2.40;99.90;;;;;;5067902;28;20024;-44
2021/04/03 04:19:03;;;;;;;33.30;6.15;;;2.40;99.90;;;;;;5086600;28;20027;-44
2021/04/03 04:21:28;;;;;;;28.65;5.22;;;2.40;99.90;;;;;;5085969;28;20271;-44
2021/04/03 04:23:54;;;;;;;30.58;5.55;;;2.40;99.90;;;;;;5086169;28;20028;-45
2021/04/03 04:26:19;;;;;;;25.20;5.65;;;2.40;99.90;;;;;;5086005;28;20032;-44
2021/04/03 04:28:45;;;;;;;35.58;4.75;;;2.40;99.90;;;;;;5086512;28;20024;-44
2021/04/03 04:31:10;;;;;;;27.20;5.38;;;2.30;99.90;;;;;;5086850;28;20060;-44
2021/04/03 04:33:36;;;;;;;30.58;7.00;;;2.30;99.90;;;;;;5086344;28;20031;-43
2021/04/03 04:36:02;;;;;;;33.05;5.60;;;2.30;99.90;;;;;;5086168;28;20118;-43
2021/04/03 04:38:28;;;;;;;50.30;8.98;;;2.30;99.90;;;;;;5066217;28;20028;-43
2021/04/03 04:40:53;;;;;;;25.85;5.60;;;2.30;99.90;;;;;;5071469;28;20033;-44
2021/04/03 04:43:20;;;;;;;30.85;5.82;;;2.30;99.90;;;;;;5066454;28;20055;-44
2021/04/03 04:45:46;;;;;;;27.25;5.32;;;2.30;99.90;;;;;;5065400;28;20086;-44
2021/04/03 04:48:11;;;;;;;31.33;5.15;;;2.30;99.90;;;;;;5066023;28;20032;-44
2021/04/03 04:50:37;;;;;;;40.95;5.20;;;2.20;99.90;;;;;;5066471;28;20028;-44
2021/04/03 04:53:02;;;;;;;24.67;4.68;;;2.30;99.90;;;;;;5085486;28;20024;-44
2021/04/03 04:55:28;;;;;;;25.92;5.03;;;2.20;99.90;;;;;;5085532;28;20036;-43
2021/04/03 04:57:53;;;;;;;34.08;6.18;;;2.20;99.90;;;;;;5066905;28;20339;-45
2021/04/03 05:00:19;;;;;;;31.83;7.22;;;2.20;99.90;;;;;;5085844;28;20068;-44
2021/04/03 05:02:45;;;;;;;29.20;6.30;;;2.20;99.90;;;;;;5084911;28;20032;-44
2021/04/03 05:05:11;;;;;;;26.85;5.30;;;2.30;99.90;;;;;;5085977;28;20036;-44
2021/04/03 05:07:36;;;;;;;22.55;4.63;;;2.20;99.90;;;;;;5085363;28;20459;-44
2021/04/03 05:10:03;;;;;;;28.35;5.43;;;2.20;99.90;;;;;;5085299;28;20040;-44
2021/04/03 05:12:28;;;;;;;28.05;5.85;;;2.20;99.90;;;;;;5085320;28;20413;-43
2021/04/03 05:14:54;;;;;;;23.73;5.15;;;2.20;99.90;;;;;;5085629;28;20034;-44
2021/04/03 05:17:21;;;;;;;29.23;6.95;;;2.20;99.90;;;;;;5085788;28;20028;-43
2021/04/03 05:19:47;;;;;;;28.42;5.90;;;2.30;99.90;;;;;;5085703;28;20030;-45
2021/04/03 05:22:12;;;;;;;30.08;6.20;;;2.30;99.90;;;;;;5084885;28;20431;-46
2021/04/03 05:24:38;;;;;;;27.67;6.28;;;2.30;99.90;;;;;;5085482;28;20033;-45
2021/04/03 05:27:04;;;;;;;31.33;5.63;;;2.30;99.90;;;;;;5085716;28;20031;-45
2021/04/03 05:29:29;;;;;;;34.38;7.05;;;2.30;99.90;;;;;;5085445;28;20511;-45
2021/04/03 05:31:55;;;;;;;24.80;5.35;;;2.30;99.90;;;;;;5067699;28;20531;-44
2021/04/03 05:34:20;;;;;;;24.80;4.97;;;2.30;99.90;;;;;;5085774;28;20076;-45
2021/04/03 05:36:46;;;;;;;39.70;7.30;;;2.40;99.90;;;;;;5066872;28;20058;-45
2021/04/03 05:39:11;;;;;;;32.20;6.35;;;2.40;99.90;;;;;;5084516;28;20079;-45
2021/04/03 05:41:37;;;;;;;38.10;6.75;;;2.30;99.90;;;;;;5078081;28;20553;-46
2021/04/03 05:44:03;;;;;;;28.83;5.60;;;2.40;99.90;;;;;;5085540;28;20699;-45
2021/04/03 05:46:29;;;;;;;34.08;6.35;;;2.40;99.90;;;;;;5083609;28;20016;-45
2021/04/03 05:48:55;;;;;;;31.92;6.00;;;2.40;99.90;;;;;;5085636;28;20039;-46
2021/04/03 05:51:21;;;;;;;34.00;5.97;;;2.50;99.90;;;;;;5085622;28;20028;-47
2021/04/03 05:53:47;;;;;;;32.22;6.72;;;2.50;99.90;;;;;;5087612;28;20032;-45
2021/04/03 05:56:16;;;;;;;25.70;6.05;;;2.50;99.90;;;;;;5088866;28;20533;-45
2021/04/03 05:58:41;;;;;;;29.27;6.10;;;2.60;99.90;;;;;;5089093;28;20327;-45
2021/04/03 06:01:07;;;;;;;27.88;6.40;;;2.70;99.90;;;;;;5070509;28;20028;-45
2021/04/03 06:03:35;;;;;;;37.85;7.20;;;2.80;99.90;;;;;;5088664;28;20052;-47
2021/04/03 06:06:01;;;;;;;37.42;6.47;;;2.80;99.90;;;;;;5087628;28;20297;-45
2021/04/03 06:08:30;;;;;;;38.08;7.60;;;2.90;99.90;;;;;;5088405;28;20597;-48
2021/04/03 06:11:20;;;;;;;25.13;6.88;;;2.90;99.90;;;;;;5089194;28;20060;-48
2021/04/03 06:14:01;;;;;;;31.33;6.57;;;3.00;99.90;;;;;;5088463;28;20035;-46
2021/04/03 06:16:36;;;;;;;32.22;6.57;;;3.00;99.90;;;;;;5088167;28;20345;-45
2021/04/03 06:19:18;;;;;;;26.48;6.93;;;3.00;99.90;;;;;;5088682;28;20561;-44
2021/04/03 06:21:58;;;;;;;26.23;6.45;;;3.10;99.90;;;;;;5088417;28;20038;-45
2021/04/03 06:24:37;;;;;;;35.10;6.75;;;3.10;99.90;;;;;;5087229;28;20032;-45
2021/04/03 06:27:17;;;;;;;31.50;6.30;;;3.20;99.90;;;;;;5087493;28;20032;-45
2021/04/03 06:29:49;;;;;;;35.15;6.93;;;3.20;99.90;;;;;;5087241;28;20032;-45
2021/04/03 06:32:24;;;;;;;23.55;6.45;;;3.20;99.90;;;;;;5084608;28;20063;-45
2021/04/03 06:34:51;;;;;;;46.55;6.32;;;3.20;99.90;;;;;;5080617;28;20029;-45
2021/04/03 06:37:28;;;;;;;21.83;6.18;;;3.20;99.90;;;;;;5079443;28;20367;-45
2021/04/03 06:40:01;;;;;;;24.45;6.38;;;3.30;99.90;;;;;;5081807;28;20466;-44
2021/04/03 06:42:57;;;;;;;40.38;7.20;;;3.40;99.90;;;;;;5078904;28;20063;-45
2021/04/03 06:45:28;;;;;;;28.70;7.03;;;3.40;99.90;;;;;;5084013;28;20419;-45
2021/04/03 06:47:57;;;;;;;24.00;6.47;;;3.50;99.90;;;;;;5081471;28;20072;-47
2021/04/03 06:50:28;;;;;;;30.58;6.10;;;3.50;99.90;;;;;;5079945;28;20016;-48
2021/04/03 06:52:54;;;;;;;22.02;7.03;;;3.60;99.90;;;;;;5082057;28;20028;-45
2021/04/03 06:55:23;;;;;;;27.15;6.47;;;3.60;99.90;;;;;;5080744;28;20031;-45
2021/04/03 06:57:49;;;;;;;22.55;7.22;;;3.70;99.90;;;;;;5080660;28;20355;-45
2021/04/03 07:00:17;;;;;;;17.40;6.25;;;3.80;99.90;;;;;;5078676;28;20043;-45
2021/04/03 07:02:59;;;;;;;30.33;8.15;;;3.80;99.90;;;;;;5081242;28;20024;-47
2021/04/03 07:05:30;;;;;;;26.48;8.32;;;3.90;99.90;;;;;;5066443;28;20084;-44
2021/04/03 07:07:56;;;;;;;22.05;5.53;;;4.00;99.90;;;;;;5081100;28;20520;-44
2021/04/03 07:10:22;;;;;;;40.40;7.70;;;4.10;99.90;;;;;;5077180;28;20063;-45
2021/04/03 07:12:48;;;;;;;22.65;7.30;;;4.20;99.90;;;;;;5086817;28;20024;-45
2021/04/03 07:15:14;;;;;;;18.17;5.90;;;4.30;99.90;;;;;;5085638;28;20039;-45
2021/04/03 07:17:42;;;;;;;21.27;5.82;;;4.40;99.90;;;;;;5086329;28;20243;-45
2021/04/03 07:20:13;;;;;;;31.38;7.10;;;4.50;99.90;;;;;;5085402;28;20028;-46
2021/04/03 07:22:41;;;;;;;29.95;6.45;;;4.50;99.90;;;;;;5083138;28;20520;-45
2021/04/03 07:25:08;;;;;;;20.20;5.47;;;4.60;99.90;;;;;;5080703;28;20063;-45
2021/04/03 07:27:37;;;;;;;25.08;5.65;;;4.80;99.90;;;;;;5068973;28;20512;-45
2021/04/03 07:30:03;;;;;;;18.67;5.47;;;5.10;99.90;;;;;;5089923;28;20020;-45
2021/04/03 07:32:31;;;;;;;18.40;4.93;;;5.60;99.90;;;;;;5087304;28;20067;-45
2021/04/03 07:34:57;;;;;;;15.48;5.97;;;6.10;99.90;;;;;;5084679;28;20026;-45
2021/04/03 07:37:35;;;;;;;16.55;5.78;;;6.40;99.90;;;;;;5087737;28;20024;-44
2021/04/03 07:40:02;;;;;;;16.92;5.35;;;6.50;99.90;;;;;;5086552;28;20107;-48
2021/04/03 07:42:33;;;;;;;16.63;5.15;;;6.30;99.90;;;;;;5082946;28;20020;-46
2021/04/03 07:44:59;;;;;;;18.45;5.13;;;6.30;99.90;;;;;;5083765;28;20024;-45
2021/04/03 07:47:25;;;;;;;15.20;4.47;;;6.20;99.90;;;;;;5086967;28;20024;-45
2021/04/03 07:49:52;;;;;;;25.70;5.57;;;6.30;99.90;;;;;;5085621;28;20049;-47
2021/04/03 07:52:51;;;;;;;24.92;4.85;;;6.40;99.90;;;;;;5087139;28;20382;-45
2021/04/03 07:55:34;;;;;;;15.88;4.70;;;6.70;99.90;;;;;;5097873;28;20016;-43
2021/04/03 07:58:24;;;;;;;20.25;6.05;;;6.90;99.90;;;;;;5085907;28;20070;-44
2021/04/03 08:00:50;;;;;;;17.75;6.22;;;7.50;99.90;;;;;;5068068;28;20381;-45
2021/04/03 08:03:22;;;;;;;15.50;3.92;;;8.00;99.90;;;;;;5086045;28;20071;-45
2021/04/03 08:05:49;;;;;;;16.60;4.72;;;8.80;99.90;;;;;;5082843;28;20024;-44
2021/04/03 08:08:18;;;;;;;17.40;4.00;;;9.10;99.90;;;;;;5093855;28;20085;-45
2021/04/03 08:10:45;;;;;;;17.80;5.00;;;9.50;99.90;;;;;;5100478;28;20016;-49
2021/04/03 08:13:11;;;;;;;15.25;3.90;;;9.70;99.90;;;;;;5093503;28;20077;-44
2021/04/03 08:15:40;;;;;;;14.73;4.18;;;9.80;99.90;;;;;;5090341;28;20062;-44
2021/04/03 08:18:09;;;;;;;13.95;4.88;;;9.90;99.90;;;;;;5086561;28;20074;-46
2021/04/03 08:20:35;;;;;;;13.45;3.83;;;9.80;99.90;;;;;;5086553;28;20020;-46
2021/04/03 08:23:06;;;;;;;17.65;4.63;;;9.90;98.90;;;;;;5086941;28;20040;-44
2021/04/03 08:25:33;;;;;;;12.43;4.60;;;10.00;99.30;;;;;;5085877;28;20044;-44
2021/04/03 08:27:59;;;;;;;14.20;4.10;;;10.20;97.40;;;;;;5086085;28;20088;-44
2021/04/03 08:30:32;;;;;;;16.48;4.43;;;10.70;97.90;;;;;;5086498;28;20559;-45
2021/04/03 08:33:14;;;;;;;11.52;3.67;;;11.90;91.00;;;;;;5068802;28;20035;-44
2021/04/03 08:35:49;;;;;;;13.95;3.45;;;13.00;85.20;;;;;;5085599;28;20024;-45
2021/04/03 08:38:18;;;;;;;10.38;3.83;;;14.30;77.90;;;;;;5083501;28;20028;-44
2021/04/03 08:40:44;;;;;;;8.43;2.83;;;15.50;71.30;;;;;;5085641;28;20032;-45
2021/04/03 08:43:24;;;;;;;8.38;3.28;;;16.70;63.30;;;;;;5063116;28;20402;-46
2021/04/03 08:45:50;;;;;;;10.43;3.33;;;18.30;56.90;;;;;;5074491;28;20024;-45
2021/04/03 08:48:16;;;;;;;7.07;2.88;;;19.20;51.60;;;;;;5086240;28;20116;-46
2021/04/03 08:50:44;;;;;;;6.05;2.78;;;19.50;49.20;;;;;;5085851;28;20067;-45
2021/04/03 08:53:10;;;;;;;6.55;3.00;;;19.90;47.80;;;;;;5084941;28;20031;-45
2021/04/03 08:55:36;;;;;;;9.35;3.42;;;19.50;49.70;;;;;;5085600;28;20368;-45
2021/04/03 08:58:03;;;;;;;9.30;3.33;;;20.60;46.60;;;;;;5086380;28;20024;-45
2021/04/03 09:00:29;;;;;;;7.35;3.15;;;20.20;46.40;;;;;;5085846;28;20028;-45
2021/04/03 09:02:57;;;;;;;7.30;3.03;;;20.70;46.10;;;;;;5085275;28;20077;-45
2021/04/03 09:05:22;;;;;;;8.13;3.35;;;21.20;44.80;;;;;;5084791;28;20255;-46
2021/04/03 09:07:48;;;;;;;7.20;3.13;;;20.90;43.10;;;;;;5086169;28;20035;-44
2021/04/03 09:10:19;;;;;;;6.57;2.55;;;22.00;42.60;;;;;;5085944;28;20024;-45
2021/04/03 09:12:46;;;;;;;6.93;2.60;;;22.20;41.60;;;;;;5085496;28;20136;-45
2021/04/03 09:15:13;;;;;;;6.15;2.55;;;22.50;42.60;;;;;;5085415;28;20165;-45
2021/04/03 09:17:55;;;;;;;6.53;2.70;;;24.10;38.80;;;;;;5085518;28;20096;-44
2021/04/03 09:20:25;;;;;;;6.63;2.55;;;23.40;38.10;;;;;;5085326;28;20205;-46
2021/04/03 09:22:53;;;;;;;5.63;2.77;;;23.50;40.00;;;;;;5084512;28;20100;-45
2021/04/03 09:25:22;;;;;;;5.05;2.42;;;24.10;37.40;;;;;;5084166;28;20020;-46
2021/04/03 09:28:11;;;;;;;4.95;2.05;;;23.50;36.80;;;;;;5088356;28;20012;-48
2021/04/03 09:30:43;;;;;;;4.35;1.75;;;23.30;36.70;;;;;;5089486;28;20502;-46
2021/04/03 09:33:17;;;;;;;3.08;1.52;;;24.30;33.60;;;;;;5089675;28;20078;-44
2021/04/03 09:35:43;;;;;;;3.13;1.48;;;24.90;32.90;;;;;;5071125;28;20024;-45
2021/04/03 09:38:09;;;;;;;2.63;1.30;;;24.10;32.60;;;;;;5089023;28;20035;-46
2021/04/03 09:40:45;;;;;;;3.65;1.08;;;24.40;31.60;;;;;;5071109;28;20063;-45
2021/04/03 09:43:12;;;;;;;1.83;1.00;;;24.10;32.60;;;;;;5088715;28;20032;-45
2021/04/03 09:45:38;;;;;;;2.78;1.13;;;24.20;31.10;;;;;;5084516;28;20082;-45
2021/04/03 09:48:10;;;;;;;2.00;1.48;;;24.40;33.50;;;;;;5086372;28;20028;-45
2021/04/03 09:50:37;;;;;;;2.33;1.23;;;24.90;32.90;;;;;;5089563;28;20524;-45
2021/04/03 09:53:10;;;;;;;3.90;1.45;;;25.10;31.30;;;;;;5088744;28;20036;-45
2021/04/03 09:55:36;;;;;;;5.68;1.88;;;26.20;29.90;;;;;;5088310;28;20038;-46
2021/04/03 09:58:02;;;;;;;4.88;1.50;;;25.20;31.20;;;;;;5089133;28;20039;-45
2021/04/03 10:00:28;;;;;;;3.80;1.60;;;25.30;31.00;;;;;;5089180;28;20031;-45
2021/04/03 10:02:53;;;;;;;4.10;1.63;;;25.20;32.00;;;;;;5088421;28;20032;-44
2021/04/03 10:05:19;;;;;;;3.35;1.85;;;25.10;32.60;;;;;;5088315;28;20181;-45
2021/04/03 10:07:44;;;;;;;4.32;1.90;;;24.70;32.30;;;;;;5088993;28;20068;-44
2021/04/03 10:10:10;;;;;;;4.85;1.67;;;24.40;33.40;;;;;;5070266;28;20024;-46
2021/04/03 10:12:35;;;;;;;4.22;1.77;;;23.60;32.30;;;;;;5070063;28;20509;-44
2021/04/03 10:15:01;;;;;;;4.18;1.83;;;22.90;33.00;;;;;;5088184;28;20034;-44
2021/04/03 10:17:26;;;;;;;2.55;1.45;;;21.80;34.20;;;;;;5088951;28;20038;-44
2021/04/03 10:19:52;;;;;;;1.52;1.20;;;20.90;35.60;;;;;;5088728;28;20039;-44
2021/04/03 10:22:17;;;;;;;2.55;1.42;;;20.20;35.90;;;;;;5088323;28;20085;-45
2021/04/03 10:24:44;;;;;;;3.53;1.30;;;19.90;38.30;;;;;;5086876;28;20135;-46
2021/04/03 10:27:09;;;;;;;3.58;1.33;;;20.30;35.40;;;;;;5087620;28;20028;-45
2021/04/03 10:29:35;;;;;;;3.15;1.20;;;19.20;36.70;;;;;;5088404;28;20020;-45
2021/04/03 10:32:00;;;;;;;1.73;0.90;;;19.30;37.60;;;;;;5088304;28;20198;-45
2021/04/03 10:34:26;;;;;;;4.45;1.40;;;20.40;35.90;;;;;;5088275;28;20576;-45
2021/04/03 10:36:51;;;;;;;2.97;1.73;;;21.20;34.50;;;;;;5087805;28;20089;-45
2021/04/03 10:39:17;;;;;;;3.15;1.30;;;22.00;35.50;;;;;;5083779;28;20099;-44
2021/04/03 10:41:42;;;;;;;3.28;1.52;;;22.40;35.00;;;;;;5098212;28;20031;-45
2021/04/03 10:44:08;;;;;;;2.80;1.58;;;21.00;34.10;;;;;;5107895;28;20028;-46
2021/04/03 10:46:34;;;;;;;2.85;1.33;;;21.50;32.30;;;;;;5075558;28;20079;-46
2021/04/03 10:49:00;;;;;;;1.83;1.30;;;22.00;34.00;;;;;;5084398;28;20036;-46
2021/04/03 10:51:26;;;;;;;3.15;1.17;;;23.20;31.00;;;;;;5088095;28;20024;-45
2021/04/03 10:53:51;;;;;;;6.55;1.63;;;22.50;30.60;;;;;;5087176;28;20077;-48
2021/04/03 10:56:18;;;;;;;2.53;1.20;;;22.10;31.90;;;;;;5087480;28;20115;-47
2021/04/03 10:58:45;;;;;;;2.45;1.10;;;21.90;32.10;;;;;;5087316;28;20489;-46
2021/04/03 11:01:10;;;;;;;2.30;1.13;;;23.20;32.10;;;;;;5087384;28;20024;-45
2021/04/03 11:03:36;;;;;;;2.78;1.40;;;23.70;31.90;;;;;;5087525;28;20594;-45
2021/04/03 11:06:01;;;;;;;4.38;1.40;;;24.00;30.20;;;;;;5086414;28;20064;-45
2021/04/03 11:08:29;;;;;;;2.50;1.52;;;24.70;30.20;;;;;;5068600;28;20485;-46
2021/04/03 11:10:54;;;;;;;3.75;1.15;;;25.20;28.80;;;;;;5087697;28;20021;-48
2021/04/03 11:13:20;;;;;;;7.97;1.30;;;24.80;29.90;;;;;;5087356;28;20046;-45
2021/04/03 11:15:46;;;;;;;1.52;1.05;;;23.30;29.40;;;;;;5086330;28;20079;-46
2021/04/03 11:18:11;;;;;;;2.47;1.20;;;23.00;32.00;;;;;;5087829;28;20034;-46
2021/04/03 11:20:38;;;;;;;4.57;1.40;;;23.60;29.50;;;;;;5069520;28;20077;-45
2021/04/03 11:23:04;;;;;;;3.45;1.30;;;23.60;30.40;;;;;;5087394;28;20020;-47
2021/04/03 11:25:29;;;;;;;2.53;1.40;;;23.90;31.60;;;;;;5086332;28;20525;-46
2021/04/03 11:27:55;;;;;;;2.45;1.27;;;24.10;30.90;;;;;;5086934;28;20084;-47
2021/04/03 11:30:21;;;;;;;1.85;1.27;;;24.10;29.30;;;;;;5086844;28;20024;-46
2021/04/03 11:32:49;;;;;;;2.75;1.20;;;24.50;29.50;;;;;;5087339;28;20035;-47
2021/04/03 11:35:19;;;;;;;1.63;0.85;;;24.80;28.90;;;;;;5086337;28;20673;-46
2021/04/03 11:37:45;;;;;;;2.70;1.02;;;24.20;28.40;;;;;;5087145;28;20032;-46
2021/04/03 11:40:12;;;;;;;2.75;1.02;;;23.60;28.80;;;;;;5086623;28;20058;-49
2021/04/03 11:42:38;;;;;;;4.60;1.33;;;23.30;29.20;;;;;;5087004;28;20024;-45
2021/04/03 11:45:07;;;;;;;1.98;1.33;;;23.60;29.80;;;;;;5074547;28;20036;-44
2021/04/03 11:47:34;;;;;;;1.45;0.90;;;22.80;30.30;;;;;;5060521;28;20489;-44
2021/04/03 11:50:00;;;;;;;3.03;0.90;;;23.60;30.00;;;;;;5082185;28;20070;-44
2021/04/03 11:52:30;;;;;;;4.85;1.38;;;23.80;28.80;;;;;;5086695;28;20056;-45
2021/04/03 11:54:56;;;;;;;3.90;1.27;;;23.80;29.90;;;;;;5085633;28;20103;-45
2021/04/03 11:57:21;;;;;;;1.85;0.90;;;23.10;29.10;;;;;;5087194;28;20126;-44
2021/04/03 11:59:47;;;;;;;1.75;1.00;;;23.00;29.10;;;;;;5086994;28;20106;-45
2021/04/03 12:02:14;;;;;;;1.98;1.17;;;23.00;29.80;;;;;;5086545;28;20035;-44
2021/04/03 12:04:39;;;;;;;2.53;0.93;;;22.70;29.90;;;;;;5086201;28;20036;-45
2021/04/03 12:07:06;;;;;;;2.95;0.90;;;22.80;29.20;;;;;;5085497;28;20443;-45
2021/04/03 12:09:31;;;;;;;2.25;1.17;;;23.60;28.70;;;;;;5087036;28;20484;-46
2021/04/03 12:11:57;;;;;;;4.93;1.25;;;23.20;28.70;;;;;;5086847;28;20032;-46
2021/04/03 12:14:24;;;;;;;2.88;1.23;;;22.10;30.50;;;;;;5086724;28;20073;-46
2021/04/03 12:16:50;;;;;;;2.78;1.00;;;21.00;31.10;;;;;;5086160;28;20505;-45
2021/04/03 12:19:15;;;;;;;6.97;1.10;;;20.60;35.70;;;;;;5086768;28;20226;-45
2021/04/03 12:21:41;;;;;;;3.42;1.17;;;20.00;34.00;;;;;;5086170;28;20031;-44
2021/04/03 12:24:07;;;;;;;1.95;1.20;;;20.30;34.50;;;;;;5085831;28;20500;-45
2021/04/03 12:26:32;;;;;;;5.50;1.60;;;20.30;34.70;;;;;;5085799;28;20032;-47
2021/04/03 12:28:58;;;;;;;2.42;1.40;;;20.50;33.40;;;;;;5086580;28;20111;-45
2021/04/03 12:31:24;;;;;;;2.03;1.23;;;20.30;32.70;;;;;;5086677;28;20101;-45
2021/04/03 12:33:49;;;;;;;4.65;1.02;;;20.10;33.30;;;;;;5086446;28;20660;-45
2021/04/03 12:36:17;;;;;;;2.58;1.20;;;19.40;33.60;;;;;;5085837;28;20020;-45
2021/04/03 12:38:43;;;;;;;1.55;1.05;;;19.60;36.20;;;;;;5086313;28;20023;-46
2021/04/03 12:41:08;;;;;;;2.70;1.23;;;18.60;34.30;;;;;;5068149;28;20032;-45
2021/04/03 12:43:35;;;;;;;2.85;1.10;;;17.50;36.10;;;;;;5086175;28;20421;-44
2021/04/03 12:46:00;;;;;;;4.78;1.40;;;17.60;38.40;;;;;;5085532;28;20409;-44
2021/04/03 12:48:26;;;;;;;4.85;1.38;;;17.80;36.50;;;;;;5085606;28;20043;-45
2021/04/03 12:50:51;;;;;;;3.85;1.13;;;17.80;36.40;;;;;;5079789;28;20172;-44